Time;durP1;ratioP1;P1;durP2;ratioP2;P2;SDS_P1;SDS_P2;PMS_P1;PMS_P2;Temp;Humidity;BMP_temperature;BMP_pressure;BME280_temperature;BME280_humidity;BME280_pressure;Samples;Min_cycle;Max_cycle;Signal;HPM_P1;HPM_P2
2021/04/21 00:00:36;;;;;;;11.20;9.23;;;;;;;12.68;58.60;100056.16;10268236;28;20242;-58
2021/04/21 00:05:38;;;;;;;10.23;9.13;;;;;;;12.69;58.04;100060.50;10255308;28;20491;-59
2021/04/21 00:10:40;;;;;;;11.38;10.18;;;;;;;12.63;58.68;100053.06;10267880;28;20043;-59
2021/04/21 00:15:41;;;;;;;10.65;9.40;;;;;;;12.59;58.75;100051.66;10268690;28;20043;-59
2021/04/21 00:20:47;;;;;;;10.95;9.77;;;;;;;12.56;58.76;100043.94;10267820;28;20081;-59
2021/04/21 00:25:52;;;;;;;11.65;10.40;;;;;;;12.42;58.97;100033.69;10268603;28;20054;-58
2021/04/21 00:30:55;;;;;;;10.35;9.35;;;;;;;12.49;58.67;100038.31;10266284;28;20051;-58
2021/04/21 00:35:56;;;;;;;10.63;9.57;;;;;;;12.40;58.82;100039.19;10267470;28;22107;-59
2021/04/21 00:41:16;;;;;;;11.20;10.10;;;;;;;12.15;58.96;100005.88;10263662;28;20051;-58
2021/04/21 00:46:22;;;;;;;10.23;9.20;;;;;;;12.26;59.39;100040.41;10264287;28;20058;-58
2021/04/21 00:51:36;;;;;;;10.93;9.82;;;;;;;12.29;59.33;100056.16;10265729;28;20074;-59
2021/04/21 00:56:43;;;;;;;11.32;10.13;;;;;;;12.21;59.19;100053.34;10264142;28;20062;-60
2021/04/21 01:01:45;;;;;;;11.23;10.13;;;;;;;12.15;59.70;100049.41;10273703;28;20054;-59
2021/04/21 01:06:47;;;;;;;11.95;9.98;;;;;;;12.03;59.67;100043.34;10272270;28;20054;-59
2021/04/21 01:11:57;;;;;;;10.55;9.52;;;;;;;11.95;60.58;100053.88;10266827;28;20385;-59
2021/04/21 01:17:02;;;;;;;12.02;10.82;;;;;;;11.84;60.99;100057.47;10266124;28;20420;-59
2021/04/21 01:22:14;;;;;;;11.75;10.65;;;;;;;11.78;61.08;100046.50;10268658;28;20054;-59
2021/04/21 01:27:21;;;;;;;12.23;10.32;;;;;;;11.73;61.48;100044.25;10264233;28;20046;-59
2021/04/21 01:32:26;;;;;;;12.27;11.05;;;;;;;11.63;61.37;100038.88;10263446;28;20043;-59
2021/04/21 01:37:33;;;;;;;11.85;10.75;;;;;;;11.46;61.27;100013.69;10266291;28;20065;-61
2021/04/21 01:42:37;;;;;;;12.30;11.20;;;;;;;11.65;61.37;100062.75;10266403;28;20051;-59
2021/04/21 01:47:42;;;;;;;12.27;11.07;;;;;;;11.59;61.52;100053.47;10257995;28;20055;-62
2021/04/21 01:52:58;;;;;;;11.75;10.65;;;;;;;11.51;61.54;100053.28;10236253;28;20102;-57
2021/04/21 01:58:17;;;;;;;11.55;10.43;;;;;;;11.50;62.16;100060.44;10261669;28;20043;-58
2021/04/21 02:03:39;;;;;;;11.48;10.38;;;;;;;11.39;61.88;100054.34;10264105;28;20820;-57
2021/04/21 02:09:10;;;;;;;10.85;9.75;;;;;;;11.37;62.17;100069.66;10264632;28;20046;-58
2021/04/21 02:14:23;;;;;;;10.90;9.90;;;;;;;11.29;62.70;100057.00;10264305;28;20468;-58
2021/04/21 02:19:44;;;;;;;11.65;10.55;;;;;;;11.23;62.67;100066.34;10265523;28;20050;-58
2021/04/21 02:24:53;;;;;;;11.38;10.30;;;;;;;11.18;62.83;100065.88;10264903;28;20062;-64
2021/04/21 02:30:09;;;;;;;12.63;11.32;;;;;;;11.10;62.93;100063.06;10264510;28;20050;-58
2021/04/21 02:35:16;;;;;;;12.02;10.82;;;;;;;11.07;63.01;100068.66;10273944;28;20114;-58
2021/04/21 02:40:38;;;;;;;11.80;10.52;;;;;;;11.00;63.49;100064.81;10274518;28;20047;-60
2021/04/21 02:46:03;;;;;;;10.90;9.80;;;;;;;10.94;63.67;100067.03;10270294;28;20054;-57
2021/04/21 02:51:15;;;;;;;10.85;9.75;;;;;;;10.93;63.61;100072.50;10272172;28;20436;-59
2021/04/21 02:56:36;;;;;;;12.48;11.18;;;;;;;10.93;63.66;100056.50;10271729;28;20085;-57
2021/04/21 03:01:41;;;;;;;11.30;10.20;;;;;;;11.02;63.29;100060.19;10270859;28;20142;-58
2021/04/21 03:06:50;;;;;;;13.00;10.98;;;;;;;11.00;63.61;100067.47;10263704;28;20058;-57
2021/04/21 03:11:56;;;;;;;12.13;10.73;;;;;;;10.98;63.46;100058.78;10271769;28;20062;-58
2021/04/21 03:17:00;;;;;;;12.35;11.15;;;;;;;10.94;63.63;100064.38;10271795;28;20054;-57
2021/04/21 03:22:12;;;;;;;13.00;11.60;;;;;;;10.93;63.74;100062.69;10275984;28;20134;-58
2021/04/21 03:27:15;;;;;;;11.73;10.65;;;;;;;10.87;64.00;100041.91;10257847;28;20098;-58
2021/04/21 03:32:23;;;;;;;12.98;11.10;;;;;;;10.93;63.26;100062.69;10273158;28;20117;-59
2021/04/21 03:38:03;;;;;;;13.07;11.77;;;;;;;10.87;63.51;100055.22;10271027;28;20053;-59
2021/04/21 03:43:05;;;;;;;16.85;12.68;;;;;;;10.73;64.61;100048.41;10264984;28;20093;-59
2021/04/21 03:48:08;;;;;;;13.93;12.15;;;;;;;10.70;64.11;100051.28;10271322;28;20101;-58
2021/04/21 03:53:12;;;;;;;13.93;12.55;;;;;;;10.72;64.06;100054.69;10271743;28;20074;-60
2021/04/21 03:58:17;;;;;;;12.48;11.23;;;;;;;10.70;64.05;100066.44;10272066;28;20063;-58
2021/04/21 04:03:20;;;;;;;;;;;;;;;10.66;64.57;100065.00;10259540;28;20050;-58
2021/04/21 04:08:24;;;;;;;14.27;11.85;;;;;;;10.63;64.58;100059.94;10261789;28;19932;-58
2021/04/21 04:13:29;;;;;;;14.27;12.20;;;;;;;10.51;64.75;100052.00;10266821;28;20110;-58
2021/04/21 04:18:31;;;;;;;13.75;12.35;;;;;;;10.52;64.85;100064.31;10266105;28;20496;-59
2021/04/21 04:23:38;;;;;;;15.18;12.43;;;;;;;10.48;64.85;100060.25;10267363;28;20451;-57
2021/04/21 04:28:40;;;;;;;14.27;12.77;;;;;;;10.49;64.82;100067.25;10254831;28;20119;-58
2021/04/21 04:33:45;;;;;;;14.05;12.60;;;;;;;10.48;64.50;100060.25;10267314;28;20046;-58
2021/04/21 04:38:46;;;;;;;14.93;13.35;;;;;;;10.48;64.79;100072.69;10266759;28;20124;-60
2021/04/21 04:43:47;;;;;;;16.38;13.23;;;;;;;10.48;64.75;100084.19;10269781;28;20039;-58
2021/04/21 04:49:07;;;;;;;16.23;14.68;;;;;;;10.33;64.77;100075.66;10267894;28;20094;-58
2021/04/21 04:54:10;;;;;;;14.98;13.48;;;;;;;10.39;64.71;100091.13;10266248;28;20050;-59
2021/04/21 04:59:12;;;;;;;15.82;14.23;;;;;;;10.29;65.11;100068.03;10270255;28;20062;-58
2021/04/21 05:04:17;;;;;;;16.67;14.85;;;;;;;10.45;64.89;100089.78;10221016;28;20082;-59
2021/04/21 05:09:21;;;;;;;16.08;14.38;;;;;;;10.49;65.19;100104.50;10215205;28;20046;-58
2021/04/21 05:14:23;;;;;;;15.63;13.98;;;;;;;10.42;65.18;100104.19;10234011;28;20061;-57
2021/04/21 05:20:02;;;;;;;15.43;13.98;;;;;;;10.43;65.45;100108.53;10236587;28;20220;-58
2021/04/21 05:25:49;;;;;;;16.42;14.68;;;;;;;10.37;65.96;100110.84;10234110;28;20074;-58
2021/04/21 05:31:12;;;;;;;17.55;15.85;;;;;;;10.35;65.04;100110.13;10214458;28;20468;-58
2021/04/21 05:36:50;;;;;;;17.95;15.57;;;;;;;10.46;65.35;100112.75;10231453;28;20109;-58
2021/04/21 05:42:09;;;;;;;17.80;16.00;;;;;;;10.42;64.85;100121.97;10230796;28;20108;-58
2021/04/21 05:47:42;;;;;;;18.55;14.40;;;;;;;10.39;65.39;100103.59;10234609;28;20499;-58
2021/04/21 05:52:49;;;;;;;18.17;14.90;;;;;;;10.55;65.12;100119.13;10236678;28;20059;-58
2021/04/21 05:57:56;;;;;;;18.52;14.60;;;;;;;10.57;64.70;100126.03;10221075;28;20090;-58
2021/04/21 06:02:59;;;;;;;18.38;16.30;;;;;;;10.63;64.09;100123.81;10236345;28;20262;-57
2021/04/21 06:08:11;;;;;;;17.85;16.05;;;;;;;10.73;64.43;100120.28;10232982;28;20094;-58
2021/04/21 06:13:12;;;;;;;18.83;16.75;;;;;;;10.90;63.60;100121.53;10226359;28;20086;-59
2021/04/21 06:18:13;;;;;;;22.58;16.48;;;;;;;11.13;63.56;100126.72;10210189;28;20166;-59
2021/04/21 06:23:20;;;;;;;21.98;17.45;;;;;;;11.08;63.64;100131.56;10226639;28;20110;-56
2021/04/21 06:28:22;;;;;;;17.25;14.93;;;;;;;11.26;62.19;100135.38;10216048;28;21377;-58
2021/04/21 06:33:31;;;;;;;18.48;15.70;;;;;;;11.41;61.98;100130.53;10230929;28;20086;-57
2021/04/21 06:38:34;;;;;;;18.92;16.95;;;;;;;11.57;62.30;100138.03;10229921;28;20212;-56
2021/04/21 06:43:38;;;;;;;18.25;15.82;;;;;;;11.78;61.92;100137.16;10231321;28;20109;-58
2021/04/21 06:48:40;;;;;;;17.25;15.52;;;;;;;11.94;61.08;100136.69;10233694;28;20070;-56
2021/04/21 06:53:47;;;;;;;16.50;14.20;;;;;;;12.11;60.54;100140.53;10232915;28;20063;-61
2021/04/21 06:58:49;;;;;;;14.52;13.00;;;;;;;12.29;59.77;100141.56;10239298;28;20137;-57
2021/04/21 07:03:50;;;;;;;15.98;14.38;;;;;;;12.42;59.61;100140.47;10236851;28;20109;-57
2021/04/21 07:08:52;;;;;;;15.27;12.18;;;;;;;12.69;58.98;100145.13;10236281;28;20078;-58
2021/04/21 07:13:54;;;;;;;14.20;12.88;;;;;;;12.95;58.12;100144.56;10231963;28;20054;-57
2021/04/21 07:19:02;;;;;;;12.70;11.45;;;;;;;13.21;57.06;100147.47;10237304;28;20058;-57
2021/04/21 07:24:05;;;;;;;14.60;12.18;;;;;;;13.35;57.14;100155.09;10242594;28;20054;-58
2021/04/21 07:29:08;;;;;;;12.98;11.68;;;;;;;13.41;55.87;100130.44;10242243;28;20113;-58
2021/04/21 07:34:14;;;;;;;14.37;12.87;;;;;;;13.44;56.33;100146.19;10238043;28;20497;-58
2021/04/21 07:39:16;;;;;;;12.50;11.20;;;;;;;13.72;56.37;100146.28;10239681;28;20067;-57
2021/04/21 07:44:27;;;;;;;17.92;12.50;;;;;;;13.87;55.78;100137.75;10242193;28;20079;-57
2021/04/21 07:49:30;;;;;;;14.88;13.07;;;;;;;14.07;55.38;100144.69;10240872;28;20140;-57
2021/04/21 07:54:33;;;;;;;14.18;12.75;;;;;;;14.42;54.29;100148.44;10239844;28;20059;-56
2021/04/21 07:59:46;;;;;;;14.45;12.77;;;;;;;14.41;54.08;100151.25;10243509;28;20500;-57
2021/04/21 08:04:55;;;;;;;16.50;12.45;;;;;;;14.81;53.30;100153.53;10238653;28;20149;-58
2021/04/21 08:09:58;;;;;;;12.90;11.60;;;;;;;15.00;53.21;100154.38;10238866;28;20050;-58
2021/04/21 08:15:09;;;;;;;14.13;11.57;;;;;;;14.94;53.46;100155.00;10243613;28;20193;-57
2021/04/21 08:20:11;;;;;;;13.15;11.95;;;;;;;15.58;53.16;100154.78;10240110;28;20519;-57
2021/04/21 08:25:12;;;;;;;12.57;11.38;;;;;;;16.00;53.60;100154.88;10239773;28;20149;-59
2021/04/21 08:30:15;;;;;;;9.93;8.82;;;;;;;16.53;51.30;100165.44;10241403;28;20057;-53
2021/04/21 08:35:16;;;;;;;11.55;10.35;;;;;;;16.84;49.34;100162.13;10241440;28;20473;-56
2021/04/21 08:40:21;;;;;;;9.73;8.27;;;;;;;17.08;48.18;100159.50;10234501;28;20047;-55
2021/04/21 08:45:22;;;;;;;9.25;8.27;;;;;;;17.36;46.62;100161.00;10218361;28;20130;-56
2021/04/21 08:50:25;;;;;;;10.52;9.63;;;;;;;17.56;44.91;100159.59;10237720;28;20116;-56
2021/04/21 08:55:28;;;;;;;11.93;10.02;;;;;;;17.40;46.17;100163.19;10238761;28;20098;-55
2021/04/21 09:00:29;;;;;;;10.80;9.15;;;;;;;17.74;45.59;100164.78;10235193;28;20528;-55
2021/04/21 09:05:32;;;;;;;9.05;8.15;;;;;;;18.13;44.42;100147.00;10237681;28;20141;-55
2021/04/21 09:10:34;;;;;;;13.25;9.35;;;;;;;18.47;43.25;100162.00;10220222;28;20137;-55
2021/04/21 09:15:34;;;;;;;11.15;10.05;;;;;;;18.83;41.52;100166.81;10217866;28;20149;-55
2021/04/21 09:20:46;;;;;;;11.02;10.02;;;;;;;19.20;41.86;100165.19;10234250;28;20671;-51
2021/04/21 09:25:50;;;;;;;11.05;10.07;;;;;;;19.46;40.79;100151.28;10234807;28;20489;-53
2021/04/21 09:30:57;;;;;;;12.03;11.00;;;;;;;19.72;40.32;100158.09;10234428;28;20110;-53
2021/04/21 09:35:58;;;;;;;12.88;11.68;;;;;;;19.29;40.53;100141.66;10236226;28;20062;-60
2021/04/21 09:41:02;;;;;;;13.10;11.93;;;;;;;19.00;40.75;100145.97;10234187;28;20051;-59
2021/04/21 09:46:23;;;;;;;13.10;11.93;;;;;;;19.72;40.08;100137.34;10236999;28;20050;-58
2021/04/21 09:51:24;;;;;;;13.48;12.18;;;;;;;20.54;38.64;100140.88;10237486;28;20045;-58
2021/04/21 09:56:25;;;;;;;13.85;12.52;;;;;;;21.05;37.75;100142.66;10236363;28;20046;-58
2021/04/21 10:01:35;;;;;;;13.13;11.95;;;;;;;21.51;36.86;100136.78;10238849;28;21188;-58
2021/04/21 10:06:48;;;;;;;13.60;12.20;;;;;;;21.86;35.72;100142.19;10235952;28;20075;-57
2021/04/21 10:11:49;;;;;;;14.27;12.97;;;;;;;22.56;34.24;100122.25;10235081;28;20054;-58
2021/04/21 10:16:54;;;;;;;16.67;15.20;;;;;;;23.22;32.59;100124.19;10235057;28;20123;-58
2021/04/21 10:21:55;;;;;;;15.13;13.57;;;;;;;24.21;31.66;100113.31;10234507;28;20065;-59
2021/04/21 10:26:56;;;;;;;14.48;12.88;;;;;;;28.03;26.39;100114.91;10236935;28;20125;-58
2021/04/21 10:31:58;;;;;;;14.57;13.18;;;;;;;29.94;22.68;100099.72;10206845;28;20162;-57
2021/04/21 10:37:00;;;;;;;14.80;13.40;;;;;;;27.89;24.61;100097.06;10229006;28;20082;-58
2021/04/21 10:42:20;;;;;;;13.40;12.30;;;;;;;26.19;27.05;100092.97;10233411;28;20117;-57
2021/04/21 10:47:21;;;;;;;14.68;13.27;;;;;;;25.56;27.86;100103.94;10235204;28;20412;-58
2021/04/21 10:52:28;;;;;;;14.55;13.05;;;;;;;30.41;21.91;100087.34;10234547;28;20054;-57
2021/04/21 10:57:30;;;;;;;12.90;11.80;;;;;;;33.03;18.90;100090.53;10239590;28;20063;-58
2021/04/21 11:02:40;;;;;;;13.02;11.82;;;;;;;32.53;18.81;100090.22;10240173;28;20113;-60
2021/04/21 11:07:45;;;;;;;14.43;13.10;;;;;;;26.97;23.58;100086.53;10238515;28;20166;-59
2021/04/21 11:12:50;;;;;;;12.32;11.25;;;;;;;26.77;25.60;100075.94;10238943;28;20065;-57
2021/04/21 11:18:14;;;;;;;13.35;12.15;;;;;;;31.51;19.51;100077.75;10241508;28;20576;-58
2021/04/21 11:23:59;;;;;;;11.95;10.95;;;;;;;32.56;17.97;100064.88;10223284;28;20074;-56
2021/04/21 11:29:07;;;;;;;13.98;12.50;;;;;;;34.35;16.31;100055.31;10240231;28;20570;-57
2021/04/21 11:34:32;;;;;;;11.05;9.82;;;;;;;32.67;17.02;100050.06;10240630;28;20147;-57
2021/04/21 11:39:42;;;;;;;9.15;8.45;;;;;;;29.15;19.04;100044.03;10239255;28;20121;-58
2021/04/21 11:44:49;;;;;;;10.13;9.10;;;;;;;31.21;17.48;100043.47;10240497;28;20673;-57
2021/04/21 11:49:59;;;;;;;10.90;9.98;;;;;;;27.20;21.40;100030.25;10240873;28;20727;-57
2021/04/21 11:55:00;;;;;;;12.40;11.30;;;;;;;24.68;26.93;100042.31;10235850;28;20137;-58
2021/04/21 12:00:04;;;;;;;14.53;13.23;;;;;;;23.50;29.24;100044.38;10237718;28;20134;-57
2021/04/21 12:05:06;;;;;;;16.33;14.82;;;;;;;23.13;33.07;100033.16;10239147;28;20132;-57
2021/04/21 12:10:07;;;;;;;14.55;13.23;;;;;;;22.17;34.50;100048.72;10239247;28;20054;-56
2021/04/21 12:15:09;;;;;;;15.98;14.57;;;;;;;21.81;33.68;100017.34;10237972;28;20102;-56
2021/04/21 12:20:19;;;;;;;14.40;13.20;;;;;;;22.36;32.35;100024.59;10236358;28;20051;-58
2021/04/21 12:25:24;;;;;;;15.70;14.27;;;;;;;22.60;31.67;100028.59;10238643;28;20054;-57
2021/04/21 12:30:31;;;;;;;13.50;12.20;;;;;;;23.39;30.36;100026.00;10241351;28;20141;-57
2021/04/21 12:35:44;;;;;;;13.73;12.30;;;;;;;24.78;27.33;100020.03;10238257;28;20065;-57
2021/04/21 12:40:45;;;;;;;10.57;9.57;;;;;;;25.42;26.58;100009.78;10239785;28;20077;-58
2021/04/21 12:45:46;;;;;;;11.85;10.70;;;;;;;25.89;25.39;100012.75;10240126;28;20074;-57
2021/04/21 12:50:50;;;;;;;11.02;10.10;;;;;;;25.72;25.32;100012.56;10237813;28;20051;-57
2021/04/21 12:56:04;;;;;;;11.10;10.18;;;;;;;25.94;25.08;100007.47;10238138;28;20043;-58
2021/04/21 13:01:23;;;;;;;9.88;9.00;;;;;;;25.88;22.80;99996.63;10237965;28;20270;-58
2021/04/21 13:06:36;;;;;;;10.32;9.18;;;;;;;25.72;23.45;100004.38;10234721;28;20166;-58
2021/04/21 13:11:39;;;;;;;10.27;9.38;;;;;;;25.19;24.30;99991.34;10236927;28;20047;-58
2021/04/21 13:16:49;;;;;;;11.70;10.57;;;;;;;25.38;24.45;99987.59;10236037;28;20050;-63
2021/04/21 13:22:10;;;;;;;11.38;10.38;;;;;;;24.44;25.37;99975.91;10234562;28;20117;-58
2021/04/21 13:27:20;;;;;;;10.40;9.48;;;;;;;24.53;25.76;99980.06;10236965;28;20061;-58
2021/04/21 13:32:21;;;;;;;12.43;11.32;;;;;;;24.48;25.85;99971.69;10234415;28;20558;-58
2021/04/21 13:37:22;;;;;;;10.15;9.25;;;;;;;24.35;25.54;99987.09;10239120;28;20072;-58
2021/04/21 13:42:23;;;;;;;12.48;11.27;;;;;;;24.10;25.28;99980.78;10233572;28;20365;-57
2021/04/21 13:47:24;;;;;;;9.85;9.05;;;;;;;23.08;27.19;99979.47;10234789;28;20054;-57
2021/04/21 13:52:25;;;;;;;10.73;9.65;;;;;;;22.86;27.08;99984.31;10238356;28;20051;-56
2021/04/21 13:57:26;;;;;;;10.77;9.52;;;;;;;22.15;29.23;100001.19;10238857;28;20055;-59
2021/04/21 14:02:27;;;;;;;10.30;9.48;;;;;;;20.51;34.98;100034.97;10239315;28;20058;-58
2021/04/21 14:07:28;;;;;;;12.73;11.60;;;;;;;19.27;40.11;100051.97;10239443;28;20194;-57
2021/04/21 14:12:29;;;;;;;13.68;12.45;;;;;;;17.97;43.70;100057.19;10238248;28;20050;-58
2021/04/21 14:17:30;;;;;;;15.10;12.90;;;;;;;16.83;49.47;100077.13;10235450;28;20113;-58
2021/04/21 14:22:33;;;;;;;13.85;12.65;;;;;;;16.50;52.63;100086.03;10236351;28;20059;-61
2021/04/21 14:27:34;;;;;;;12.10;10.88;;;;;;;16.44;53.21;100078.63;10240742;28;20118;-58
2021/04/21 14:32:35;;;;;;;12.70;11.40;;;;;;;16.78;55.44;100077.63;10246630;28;20047;-58
2021/04/21 14:37:36;;;;;;;9.20;8.27;;;;;;;17.22;51.52;100063.84;10231616;28;20062;-59
2021/04/21 14:42:37;;;;;;;8.70;7.90;;;;;;;17.09;48.50;100066.22;10245770;28;20073;-58
2021/04/21 14:47:39;;;;;;;10.68;9.52;;;;;;;17.45;50.87;100057.72;10244580;28;20119;-58
2021/04/21 14:52:40;;;;;;;10.32;9.32;;;;;;;17.90;49.63;100064.28;10246245;28;20120;-58
2021/04/21 14:57:41;;;;;;;8.77;7.97;;;;;;;18.15;49.12;100054.22;10247706;28;20063;-57
2021/04/21 15:02:42;;;;;;;7.93;7.13;;;;;;;18.34;45.94;100046.69;10246161;28;20698;-59
2021/04/21 15:07:44;;;;;;;9.40;7.70;;;;;;;18.42;44.74;100037.72;10245323;28;20428;-58
2021/04/21 15:12:49;;;;;;;7.43;6.75;;;;;;;18.22;44.02;100008.56;10246556;28;20113;-58
2021/04/21 15:17:52;;;;;;;7.97;7.18;;;;;;;18.52;44.36;100031.03;10245749;28;20058;-58
2021/04/21 15:22:53;;;;;;;5.95;5.43;;;;;;;18.65;42.50;100030.44;10241822;28;20222;-58
2021/04/21 15:27:54;;;;;;;5.43;5.03;;;;;;;18.58;40.93;100029.50;10246086;28;20550;-59
2021/04/21 15:32:56;;;;;;;5.85;5.03;;;;;;;18.66;40.90;100034.84;10247048;28;20050;-58
2021/04/21 15:37:57;;;;;;;5.97;5.38;;;;;;;18.41;40.88;100036.88;10243173;28;20057;-58
2021/04/21 15:42:58;;;;;;;5.65;5.15;;;;;;;18.33;40.55;100034.22;10225858;28;20121;-58
2021/04/21 15:48:00;;;;;;;5.43;5.03;;;;;;;18.43;39.82;100036.69;10247003;28;20384;-58
2021/04/21 15:53:01;;;;;;;7.30;6.60;;;;;;;18.42;39.45;100027.78;10243358;28;20076;-59
2021/04/21 15:58:02;;;;;;;6.82;6.32;;;;;;;18.61;39.43;100037.22;10241062;28;20061;-60
2021/04/21 16:03:04;;;;;;;7.82;7.07;;;;;;;18.53;38.91;100038.13;10218948;28;20605;-58
2021/04/21 16:08:07;;;;;;;7.20;6.60;;;;;;;18.54;38.67;100026.34;10229080;28;20364;-59
2021/04/21 16:13:08;;;;;;;7.13;6.40;;;;;;;18.45;38.61;100031.94;10239276;28;20193;-57
2021/04/21 16:18:09;;;;;;;7.47;6.78;;;;;;;18.46;39.41;100017.47;10242806;28;20046;-59
2021/04/21 16:23:10;;;;;;;7.18;6.47;;;;;;;18.38;39.12;100010.28;10240406;28;20403;-57
2021/04/21 16:28:12;;;;;;;8.75;7.95;;;;;;;18.37;38.62;100019.38;10237687;28;20515;-57
2021/04/21 16:33:13;;;;;;;9.65;8.85;;;;;;;18.18;38.90;100032.31;10237406;28;20046;-58
2021/04/21 16:38:14;;;;;;;11.65;10.55;;;;;;;17.79;38.46;100021.56;10219887;28;20057;-58
2021/04/21 16:43:15;;;;;;;10.48;9.38;;;;;;;17.87;38.77;100026.94;10238885;28;20141;-59
2021/04/21 16:48:16;;;;;;;9.98;9.00;;;;;;;17.77;39.50;100024.44;10238156;28;20050;-57
2021/04/21 16:53:18;;;;;;;8.77;7.97;;;;;;;17.88;39.70;100025.06;10236338;28;20512;-59
2021/04/21 16:58:21;;;;;;;9.05;7.63;;;;;;;17.89;41.49;100030.31;10232756;28;20046;-52
2021/04/21 17:03:23;;;;;;;8.27;7.30;;;;;;;17.95;41.66;100018.81;10237838;28;20113;-53
2021/04/21 17:08:25;;;;;;;8.60;7.80;;;;;;;17.93;41.04;100018.16;10239118;28;20043;-51
2021/04/21 17:13:26;;;;;;;9.50;8.55;;;;;;;17.89;40.96;100018.66;10236973;28;20078;-52
2021/04/21 17:18:27;;;;;;;10.38;9.48;;;;;;;17.76;40.80;100005.78;10237663;28;20054;-52
2021/04/21 17:23:28;;;;;;;9.45;7.95;;;;;;;17.80;40.52;100024.09;10221841;28;20081;-53
2021/04/21 17:28:29;;;;;;;9.27;8.10;;;;;;;17.79;40.36;100033.19;10235857;28;20117;-53
2021/04/21 17:33:31;;;;;;;10.70;9.63;;;;;;;17.73;38.95;100027.66;10238688;28;20053;-53
2021/04/21 17:38:37;;;;;;;11.15;10.15;;;;;;;17.72;39.94;100031.38;10241563;28;20058;-52
2021/04/21 17:43:41;;;;;;;11.90;10.15;;;;;;;17.59;39.13;100019.31;10237876;28;20082;-54
2021/04/21 17:48:43;;;;;;;12.85;11.63;;;;;;;17.62;39.43;100037.78;10236774;28;20084;-50
2021/04/21 17:53:45;;;;;;;18.80;17.10;;;;;;;17.28;40.12;100003.16;10228027;28;20540;-56
2021/04/21 17:58:49;;;;;;;14.90;13.23;;;;;;;17.37;40.35;100030.84;10226297;28;20046;-57
2021/04/21 18:03:50;;;;;;;11.73;10.63;;;;;;;17.34;40.33;100044.63;10235364;23;20050;-57
2021/04/21 18:08:51;;;;;;;12.05;10.90;;;;;;;17.26;40.75;100048.19;10219324;28;20047;-57
2021/04/21 18:13:53;;;;;;;12.48;10.70;;;;;;;17.18;41.38;100051.75;10218140;28;20110;-56
2021/04/21 18:18:55;;;;;;;13.52;12.30;;;;;;;17.02;41.77;100057.16;10216960;28;20063;-57
2021/04/21 18:23:56;;;;;;;14.77;13.43;;;;;;;16.96;42.79;100064.91;10214395;28;20594;-61
2021/04/21 18:28:57;;;;;;;14.30;12.85;;;;;;;16.84;42.90;100071.56;10221586;28;20074;-64
2021/04/21 18:33:58;;;;;;;15.85;12.95;;;;;;;16.69;43.48;100067.88;10215333;28;20106;-63
2021/04/21 18:38:59;;;;;;;16.25;14.73;;;;;;;16.54;43.69;100082.00;10219038;28;20439;-63
2021/04/21 18:44:00;;;;;;;14.07;12.70;;;;;;;16.43;44.75;100087.69;10216984;28;20043;-63
2021/04/21 18:49:01;;;;;;;16.25;14.65;;;;;;;16.38;45.40;100092.72;10218603;28;20058;-62
2021/04/21 18:54:07;;;;;;;15.70;13.93;;;;;;;16.28;46.15;100094.72;10218967;28;20042;-62
2021/04/21 18:59:10;;;;;;;18.02;15.80;;;;;;;16.23;47.03;100104.09;10220604;28;20152;-63
2021/04/21 19:04:11;;;;;;;17.25;15.48;;;;;;;16.10;46.31;100113.63;10216073;28;20057;-63
2021/04/21 19:09:14;;;;;;;16.08;14.38;;;;;;;16.03;46.26;100110.75;10219320;28;20059;-62
2021/04/21 19:14:15;;;;;;;17.50;15.68;;;;;;;16.02;46.75;100119.81;10223272;28;20085;-65
2021/04/21 19:19:16;;;;;;;17.10;15.40;;;;;;;15.99;46.25;100125.47;10226608;28;20051;-62
2021/04/21 19:24:18;;;;;;;16.05;14.13;;;;;;;15.94;46.12;100130.50;10222916;28;20500;-62
2021/04/21 19:29:19;;;;;;;17.40;15.60;;;;;;;15.81;48.05;100123.75;10229553;28;20070;-63
2021/04/21 19:34:20;;;;;;;15.57;13.98;;;;;;;15.86;47.40;100125.94;10228578;28;20051;-63
2021/04/21 19:39:23;;;;;;;15.45;13.88;;;;;;;15.85;47.82;100137.69;10226354;28;20063;-63
2021/04/21 19:44:24;;;;;;;16.42;14.77;;;;;;;15.81;47.75;100142.53;10223191;28;20106;-62
2021/04/21 19:49:25;;;;;;;16.55;14.90;;;;;;;15.78;47.33;100148.22;10220343;28;20132;-63
2021/04/21 19:54:27;;;;;;;16.65;14.95;;;;;;;15.72;47.35;100140.78;10218093;28;20121;-63
2021/04/21 19:59:28;;;;;;;15.48;14.07;;;;;;;15.66;47.69;100146.78;10221630;28;20469;-63
2021/04/21 20:04:29;;;;;;;17.45;15.70;;;;;;;15.61;47.84;100155.28;10222349;28;20495;-63
2021/04/21 20:09:31;;;;;;;16.60;14.95;;;;;;;15.52;47.71;100154.44;10215916;28;20130;-63
2021/04/21 20:14:32;;;;;;;16.38;14.95;;;;;;;15.44;47.15;100146.31;10219615;28;20489;-62
2021/04/21 20:19:33;;;;;;;17.13;15.43;;;;;;;15.43;46.58;100158.03;10213790;28;20055;-64
2021/04/21 20:24:34;;;;;;;16.63;15.02;;;;;;;15.45;47.06;100161.41;10214963;28;20077;-63
2021/04/21 20:29:40;;;;;;;15.43;13.82;;;;;;;15.43;47.00;100179.50;10215779;28;20439;-66
2021/04/21 20:34:42;;;;;;;16.00;14.52;;;;;;;15.36;46.52;100184.66;10214255;28;20331;-63
2021/04/21 20:39:43;;;;;;;16.08;14.57;;;;;;;15.09;45.93;100199.00;10224461;28;20054;-63
2021/04/21 20:44:47;;;;;;;15.30;13.70;;;;;;;15.03;46.10;100205.84;10272342;28;20051;-63
2021/04/21 20:49:48;;;;;;;15.13;13.68;;;;;;;14.55;47.45;100212.34;10261487;28;20133;-62
2021/04/21 20:54:50;;;;;;;17.40;14.48;;;;;;;14.51;46.97;100227.03;10242941;28;20482;-62
2021/04/21 20:59:51;;;;;;;15.30;13.75;;;;;;;14.17;47.75;100224.09;10254540;28;20455;-63
2021/04/21 21:04:54;;;;;;;16.30;14.60;;;;;;;14.33;47.54;100241.19;10278245;28;20061;-63
2021/04/21 21:09:55;;;;;;;16.00;14.13;;;;;;;14.11;48.37;100239.78;10259176;28;20743;-63
2021/04/21 21:14:56;;;;;;;16.73;15.13;;;;;;;14.12;48.37;100254.81;10261624;28;20073;-63
2021/04/21 21:19:57;;;;;;;17.75;15.90;;;;;;;14.01;49.13;100262.22;10264181;28;20137;-62
2021/04/21 21:24:58;;;;;;;17.45;15.52;;;;;;;13.87;49.90;100267.03;10266736;28;20059;-64
2021/04/21 21:29:59;;;;;;;18.73;15.50;;;;;;;13.80;50.30;100273.94;10267363;28;20055;-62
2021/04/21 21:35:01;;;;;;;16.90;14.95;;;;;;;13.55;51.61;100280.72;10270326;28;20092;-63
2021/04/21 21:40:07;;;;;;;18.13;16.23;;;;;;;13.70;51.30;100281.97;10287284;28;20055;-65
2021/04/21 21:45:08;;;;;;;16.98;15.20;;;;;;;13.64;52.18;100298.59;10285693;28;21729;-63
2021/04/21 21:50:11;;;;;;;17.83;16.05;;;;;;;13.54;52.99;100303.09;10271263;28;20101;-63
2021/04/21 21:55:13;;;;;;;18.35;15.85;;;;;;;13.46;53.16;100300.31;10284878;28;20051;-63
2021/04/21 22:00:19;;;;;;;18.25;15.55;;;;;;;13.38;54.08;100304.53;10281114;28;20055;-67
2021/04/21 22:05:23;;;;;;;18.23;16.35;;;;;;;13.23;54.42;100313.91;10270360;28;20046;-61
2021/04/21 22:10:26;;;;;;;18.42;15.77;;;;;;;13.15;54.25;100316.41;10252825;28;20066;-62
2021/04/21 22:15:30;;;;;;;17.92;16.00;;;;;;;13.06;54.98;100320.75;10254891;28;20062;-62
2021/04/21 22:20:32;;;;;;;18.00;14.82;;;;;;;12.96;55.22;100320.75;10259905;28;20054;-62
2021/04/21 22:25:33;;;;;;;17.10;14.43;;;;;;;12.94;54.67;100322.75;10259712;28;20519;-63
2021/04/21 22:30:34;;;;;;;19.20;15.93;;;;;;;12.87;55.54;100333.09;10256541;28;20046;-61
2021/04/21 22:35:37;;;;;;;15.52;13.90;;;;;;;12.84;54.79;100333.38;10256048;28;20046;-62
2021/04/21 22:40:39;;;;;;;14.90;12.98;;;;;;;12.94;54.07;100352.13;10258586;28;20051;-62
2021/04/21 22:45:40;;;;;;;13.32;11.32;;;;;;;12.93;54.08;100353.09;10263092;28;20035;-63
2021/04/21 22:50:45;;;;;;;13.05;11.07;;;;;;;12.62;54.33;100369.13;10272762;28;20516;-62
2021/04/21 22:55:48;;;;;;;14.35;11.18;;;;;;;12.39;55.53;100373.81;10268153;28;20183;-63